createdAt,value
2023-05-21T00:00:17.439Z,8.10
2023-05-21T00:02:44.788Z,7.82
2023-05-21T00:05:14.823Z,8.43
2023-05-21T00:07:42.215Z,7.43
2023-05-21T00:10:09.609Z,7.25
2023-05-21T00:12:36.643Z,6.93
2023-05-21T00:15:03.756Z,7.28
2023-05-21T00:17:30.831Z,7.15
2023-05-21T00:19:57.497Z,7.25
2023-05-21T00:22:24.132Z,7.07
2023-05-21T00:24:51.346Z,7.63
2023-05-21T00:27:18.428Z,7.35
2023-05-21T00:29:45.656Z,7.57
2023-05-21T00:32:12.835Z,7.57
2023-05-21T00:34:40.683Z,6.78
2023-05-21T00:37:10.043Z,7.45
2023-05-21T00:39:37.202Z,7.45
2023-05-21T00:42:04.328Z,7.18
2023-05-21T00:44:34.217Z,7.40
2023-05-21T00:47:06.491Z,7.15
2023-05-21T00:49:33.588Z,7.57
2023-05-21T00:52:01.593Z,7.03
2023-05-21T00:54:28.936Z,7.18
2023-05-21T00:56:56.571Z,7.13
2023-05-21T00:59:24.494Z,6.82
2023-05-21T01:01:56.107Z,7.50
2023-05-21T01:04:24.117Z,7.05
2023-05-21T01:06:53.369Z,7.18
2023-05-21T01:09:20.663Z,7.07
2023-05-21T01:11:49.306Z,6.07
2023-05-21T01:14:17.183Z,6.55
2023-05-21T01:16:48.243Z,6.82
2023-05-21T01:19:17.024Z,7.00
2023-05-21T01:21:46.378Z,6.70
2023-05-21T01:24:14.933Z,6.90
2023-05-21T01:26:44.087Z,6.40
2023-05-21T01:29:14.341Z,6.65
2023-05-21T01:31:41.523Z,6.68
2023-05-21T01:34:11.739Z,7.15
2023-05-21T01:36:44.299Z,6.72
2023-05-21T01:39:17.483Z,6.70
2023-05-21T01:41:45.725Z,6.72
2023-05-21T01:44:13.603Z,7.18
2023-05-21T01:46:40.863Z,7.75
2023-05-21T01:49:08.866Z,6.80
2023-05-21T01:51:36.563Z,7.93
2023-05-21T01:54:03.711Z,6.82
2023-05-21T01:56:33.688Z,6.93
2023-05-21T01:59:01.073Z,7.30
2023-05-21T02:01:30.370Z,6.15
2023-05-21T02:03:58.053Z,6.80
2023-05-21T02:06:25.276Z,7.00
2023-05-21T02:08:52.341Z,6.45
2023-05-21T02:11:19.430Z,7.20
2023-05-21T02:13:46.499Z,6.35
2023-05-21T02:16:15.773Z,7.30
2023-05-21T02:18:46.907Z,6.93
2023-05-21T02:21:14.021Z,5.85
2023-05-21T02:23:42.113Z,6.28
2023-05-21T02:26:09.272Z,7.10
2023-05-21T02:28:36.406Z,6.70
2023-05-21T02:31:03.986Z,7.15
2023-05-21T02:33:31.170Z,6.53
2023-05-21T02:35:58.320Z,6.57
2023-05-21T02:38:25.900Z,7.15
2023-05-21T02:40:53.086Z,6.78
2023-05-21T02:43:20.307Z,6.45
2023-05-21T02:45:47.779Z,7.25
2023-05-21T02:48:15.147Z,5.97
2023-05-21T02:50:42.280Z,6.35
2023-05-21T02:53:09.356Z,6.78
2023-05-21T02:55:36.735Z,6.80
2023-05-21T02:58:04.062Z,6.93
2023-05-21T03:00:31.172Z,6.60
2023-05-21T03:02:58.427Z,6.25
2023-05-21T03:05:25.784Z,6.72
2023-05-21T03:07:53.324Z,7.13
2023-05-21T03:10:20.523Z,6.40
2023-05-21T03:12:47.602Z,5.63
2023-05-21T03:15:14.968Z,6.72
2023-05-21T03:17:42.373Z,6.05
2023-05-21T03:20:16.011Z,6.85
2023-05-21T03:22:44.401Z,6.22
2023-05-21T03:25:12.558Z,7.05
2023-05-21T03:27:40.132Z,6.22
2023-05-21T03:30:07.475Z,6.93
2023-05-21T03:32:37.802Z,6.53
2023-05-21T03:35:05.339Z,6.35
2023-05-21T03:37:32.391Z,6.00
2023-05-21T03:39:59.456Z,6.25
2023-05-21T03:42:26.545Z,5.93
2023-05-21T03:44:53.683Z,6.63
2023-05-21T03:47:20.873Z,6.35
2023-05-21T03:49:47.975Z,5.85
2023-05-21T03:52:15.146Z,6.07
2023-05-21T03:54:42.252Z,6.50
2023-05-21T03:57:09.392Z,6.78
2023-05-21T03:59:36.514Z,7.00
2023-05-21T04:02:03.773Z,6.03
2023-05-21T04:04:30.938Z,7.15
2023-05-21T04:06:58.057Z,6.07
2023-05-21T04:09:25.290Z,6.93
2023-05-21T04:11:52.400Z,6.53
2023-05-21T04:14:19.470Z,6.57
2023-05-21T04:16:48.994Z,6.15
2023-05-21T04:19:16.196Z,6.55
2023-05-21T04:21:44.898Z,6.53
2023-05-21T04:24:12.032Z,6.63
2023-05-21T04:26:42.159Z,6.97
2023-05-21T04:29:09.994Z,6.35
2023-05-21T04:31:37.125Z,6.75
2023-05-21T04:34:04.985Z,6.53
2023-05-21T04:36:33.734Z,7.22
2023-05-21T04:39:01.450Z,6.20
2023-05-21T04:41:28.549Z,6.57
2023-05-21T04:43:55.634Z,6.63
2023-05-21T04:46:25.826Z,6.82
2023-05-21T04:48:55.940Z,6.68
2023-05-21T04:51:24.866Z,6.55
2023-05-21T04:53:52.136Z,6.30
2023-05-21T04:56:19.345Z,6.43
2023-05-21T04:58:47.935Z,6.72
2023-05-21T05:01:15.731Z,6.45
2023-05-21T05:03:43.006Z,6.28
2023-05-21T05:06:10.198Z,6.70
2023-05-21T05:08:37.348Z,6.53
2023-05-21T05:11:04.471Z,7.05
2023-05-21T05:13:31.644Z,7.30
2023-05-21T05:16:00.492Z,6.47
2023-05-21T05:18:27.723Z,6.43
2023-05-21T05:20:54.791Z,6.88
2023-05-21T05:23:21.857Z,6.72
2023-05-21T05:25:48.954Z,7.57
2023-05-21T05:28:16.032Z,6.65
2023-05-21T05:30:43.105Z,6.82
2023-05-21T05:33:11.434Z,6.65
2023-05-21T05:35:38.726Z,6.72
2023-05-21T05:38:06.234Z,6.40
2023-05-21T05:40:33.420Z,6.22
2023-05-21T05:43:00.541Z,5.85
2023-05-21T05:45:27.654Z,6.00
2023-05-21T05:47:54.777Z,6.13
2023-05-21T05:50:22.017Z,5.88
2023-05-21T05:52:48.663Z,6.07
2023-05-21T05:55:15.360Z,6.93
2023-05-21T05:57:44.900Z,6.50
2023-05-21T06:00:12.416Z,6.13
2023-05-21T06:02:39.676Z,6.03
2023-05-21T06:05:07.145Z,6.47
2023-05-21T06:07:34.361Z,7.50
2023-05-21T06:10:01.454Z,5.93
2023-05-21T06:12:28.553Z,6.05
2023-05-21T06:14:55.774Z,6.72
2023-05-21T06:17:23.032Z,6.47
2023-05-21T06:19:50.429Z,6.22
2023-05-21T06:22:17.511Z,7.05
2023-05-21T06:24:44.726Z,6.47
2023-05-21T06:27:11.823Z,6.90
2023-05-21T06:29:40.750Z,6.78
2023-05-21T06:32:08.993Z,6.22
2023-05-21T06:34:36.143Z,6.95
2023-05-21T06:37:03.464Z,5.85
2023-05-21T06:39:30.686Z,5.47
2023-05-21T06:41:57.784Z,6.88
2023-05-21T06:44:24.908Z,6.55
2023-05-21T06:46:51.984Z,6.40
2023-05-21T06:49:19.033Z,6.60
2023-05-21T06:51:46.110Z,6.25
2023-05-21T06:54:13.357Z,6.72
2023-05-21T06:56:40.918Z,6.68
2023-05-21T06:59:08.088Z,6.35
2023-05-21T07:01:35.531Z,5.60
2023-05-21T07:04:02.920Z,6.90
2023-05-21T07:06:30.060Z,7.45
2023-05-21T07:08:57.211Z,8.25
2023-05-21T07:11:28.576Z,6.22
2023-05-21T07:13:57.447Z,5.97
2023-05-21T07:16:24.599Z,6.80
2023-05-21T07:18:51.778Z,6.35
2023-05-21T07:21:18.880Z,5.47
2023-05-21T07:23:46.129Z,5.70
2023-05-21T07:26:13.614Z,5.97
2023-05-21T07:28:41.300Z,5.88
2023-05-21T07:31:08.479Z,5.05
2023-05-21T07:33:36.005Z,5.30
2023-05-21T07:36:03.077Z,5.70
2023-05-21T07:38:30.164Z,5.32
2023-05-21T07:40:57.316Z,4.97
2023-05-21T07:43:24.430Z,5.22
2023-05-21T07:45:51.738Z,5.55
2023-05-21T07:48:19.401Z,4.90
2023-05-21T07:50:49.653Z,5.07
2023-05-21T07:53:16.824Z,5.55
2023-05-21T07:55:47.745Z,5.40
2023-05-21T07:58:16.737Z,6.18
2023-05-21T08:00:45.189Z,5.25
2023-05-21T08:03:12.583Z,5.93
2023-05-21T08:05:39.736Z,5.03
2023-05-21T08:08:06.802Z,5.65
2023-05-21T08:10:33.850Z,4.93
2023-05-21T08:13:01.005Z,5.85
2023-05-21T08:15:28.105Z,5.55
2023-05-21T08:17:55.294Z,5.00
2023-05-21T08:20:22.502Z,5.70
2023-05-21T08:22:49.954Z,5.45
2023-05-21T08:25:17.149Z,5.53
2023-05-21T08:27:44.386Z,5.65
2023-05-21T08:30:11.606Z,5.82
2023-05-21T08:32:38.704Z,5.60
2023-05-21T08:35:06.135Z,5.30
2023-05-21T08:37:33.671Z,5.57
2023-05-21T08:40:00.921Z,5.80
2023-05-21T08:42:36.574Z,5.80
2023-05-21T08:45:06.660Z,5.57
2023-05-21T08:47:36.008Z,5.18
2023-05-21T08:50:04.663Z,5.55
2023-05-21T08:52:34.539Z,6.43
2023-05-21T08:55:03.590Z,5.85
2023-05-21T08:57:31.516Z,5.80
2023-05-21T08:59:59.032Z,5.88
2023-05-21T09:02:26.308Z,6.13
2023-05-21T09:04:57.291Z,6.13
2023-05-21T09:07:29.076Z,6.20
2023-05-21T09:09:57.660Z,5.43
2023-05-21T09:12:25.471Z,5.38
2023-05-21T09:14:52.989Z,6.82
2023-05-21T09:17:20.424Z,7.45
2023-05-21T09:20:09.604Z,6.72
2023-05-21T09:22:56.971Z,6.72
2023-05-21T09:25:25.475Z,6.20
2023-05-21T09:27:52.637Z,6.22
2023-05-21T09:30:34.881Z,6.45
2023-05-21T09:33:03.487Z,6.60
2023-05-21T09:35:30.753Z,6.75
2023-05-21T09:37:57.866Z,6.78
2023-05-21T09:40:25.325Z,5.60
2023-05-21T09:42:53.202Z,6.35
2023-05-21T09:45:20.411Z,6.20
2023-05-21T09:47:48.196Z,6.80
2023-05-21T09:50:19.117Z,7.82
2023-05-21T09:52:46.438Z,6.57
2023-05-21T09:55:14.023Z,6.82
2023-05-21T09:57:44.538Z,6.18
2023-05-21T10:00:21.675Z,6.63
2023-05-21T10:02:49.578Z,6.47
2023-05-21T10:05:17.470Z,6.68
2023-05-21T10:07:54.406Z,6.47
2023-05-21T10:10:22.805Z,5.93
2023-05-21T10:12:57.055Z,5.90
2023-05-21T10:15:24.926Z,6.13
2023-05-21T10:17:53.447Z,6.65
2023-05-21T10:20:21.170Z,6.30
2023-05-21T10:22:48.512Z,5.72
2023-05-21T10:25:16.269Z,6.20
2023-05-21T10:27:43.552Z,5.60
2023-05-21T10:30:10.884Z,5.88
2023-05-21T10:32:41.969Z,6.03
2023-05-21T10:35:10.364Z,6.45
2023-05-21T10:37:37.627Z,5.50
2023-05-21T10:40:04.987Z,6.40
2023-05-21T10:42:32.054Z,5.97
2023-05-21T10:45:08.276Z,5.15
2023-05-21T10:47:44.005Z,5.50
2023-05-21T10:50:29.608Z,5.68
2023-05-21T10:53:03.541Z,5.28
2023-05-21T10:55:31.717Z,5.60
2023-05-21T10:58:01.869Z,6.55
2023-05-21T11:00:31.470Z,5.47
2023-05-21T11:02:59.306Z,5.32
2023-05-21T11:05:45.483Z,5.47
2023-05-21T11:08:26.059Z,5.13
2023-05-21T11:10:54.480Z,5.80
2023-05-21T11:13:21.773Z,6.32
2023-05-21T11:16:15.635Z,5.85
2023-05-21T11:18:42.720Z,5.75
2023-05-21T11:21:17.102Z,5.70
2023-05-21T11:23:53.935Z,6.28
2023-05-21T11:26:22.398Z,5.05
2023-05-21T11:29:07.737Z,4.60
2023-05-21T11:31:39.291Z,4.63
2023-05-21T11:34:13.799Z,4.72
2023-05-21T11:36:44.547Z,5.35
2023-05-21T11:39:12.473Z,5.40
2023-05-21T11:42:00.459Z,5.25
2023-05-21T11:44:40.013Z,4.93
2023-05-21T11:47:07.798Z,6.80
2023-05-21T11:49:35.463Z,5.30
2023-05-21T11:52:03.088Z,5.63
2023-05-21T11:54:36.967Z,6.07
2023-05-21T11:57:07.683Z,5.95
2023-05-21T11:59:35.172Z,6.18
2023-05-21T12:02:02.945Z,6.50
2023-05-21T12:04:30.607Z,5.43
2023-05-21T12:07:00.668Z,5.55
2023-05-21T12:09:27.743Z,6.03
2023-05-21T12:11:54.850Z,5.18
2023-05-21T12:14:22.949Z,5.75
2023-05-21T12:16:50.179Z,6.15
2023-05-21T12:19:18.959Z,6.18
2023-05-21T12:21:46.170Z,4.78
2023-05-21T12:24:13.333Z,4.85
2023-05-21T12:26:42.050Z,4.47
2023-05-21T12:29:09.206Z,4.45
2023-05-21T12:31:47.991Z,4.80
2023-05-21T12:34:18.540Z,4.90
2023-05-21T12:36:48.203Z,5.10
2023-05-21T12:39:16.441Z,4.63
2023-05-21T12:41:44.185Z,5.20
2023-05-21T12:44:12.491Z,5.35
2023-05-21T12:46:39.751Z,5.53
2023-05-21T12:49:07.130Z,5.65
2023-05-21T12:51:40.752Z,5.18
2023-05-21T12:56:45.160Z,5.15
2023-05-21T12:59:15.751Z,6.00
2023-05-21T13:01:42.858Z,5.07
2023-05-21T13:04:10.030Z,5.38
2023-05-21T13:06:43.922Z,5.28
2023-05-21T13:09:11.052Z,5.40
2023-05-21T13:11:38.121Z,5.80
2023-05-21T13:14:05.251Z,5.13
2023-05-21T13:16:32.357Z,5.53
2023-05-21T13:18:59.539Z,5.45
2023-05-21T13:21:26.702Z,5.68
2023-05-21T13:23:53.741Z,5.72
2023-05-21T13:26:21.310Z,4.97
2023-05-21T13:28:48.391Z,6.07
2023-05-21T13:31:16.240Z,5.82
2023-05-21T13:33:43.405Z,5.60
2023-05-21T13:36:10.727Z,5.68
2023-05-21T13:38:37.791Z,5.82
2023-05-21T13:41:04.911Z,5.50
2023-05-21T13:43:32.842Z,6.15
2023-05-21T13:46:00.457Z,5.93
2023-05-21T13:48:27.549Z,6.25
2023-05-21T13:50:54.631Z,6.00
2023-05-21T13:53:22.230Z,6.38
2023-05-21T13:55:49.341Z,5.60
2023-05-21T13:58:16.500Z,5.35
2023-05-21T14:00:43.672Z,5.38
2023-05-21T14:03:11.329Z,5.38
2023-05-21T14:05:38.456Z,4.90
2023-05-21T14:08:05.651Z,5.20
2023-05-21T14:10:32.835Z,6.00
2023-05-21T14:13:07.814Z,5.55
2023-05-21T14:15:46.001Z,6.47
2023-05-21T14:18:13.179Z,5.03
2023-05-21T14:20:40.283Z,6.50
2023-05-21T14:23:07.401Z,5.60
2023-05-21T14:25:34.559Z,5.10
2023-05-21T14:28:01.742Z,5.40
2023-05-21T14:30:28.829Z,5.13
2023-05-21T14:32:57.892Z,6.07
2023-05-21T14:35:25.209Z,5.97
2023-05-21T14:37:53.085Z,6.22
2023-05-21T14:40:20.541Z,5.35
2023-05-21T14:42:47.611Z,5.47
2023-05-21T14:45:19.291Z,5.53
2023-05-21T14:47:47.672Z,5.47
2023-05-21T14:50:15.728Z,5.43
2023-05-21T14:52:43.179Z,5.65
2023-05-21T14:55:10.811Z,5.38
2023-05-21T14:57:37.872Z,5.45
2023-05-21T15:00:05.568Z,5.30
2023-05-21T15:02:32.780Z,5.35
2023-05-21T15:04:59.984Z,5.60
2023-05-21T15:07:27.212Z,5.55
2023-05-21T15:09:54.301Z,6.10
2023-05-21T15:12:21.350Z,5.47
2023-05-21T15:14:48.579Z,5.70
2023-05-21T15:17:15.896Z,5.07
2023-05-21T15:19:43.056Z,5.38
2023-05-21T15:22:10.270Z,5.20
2023-05-21T15:24:37.410Z,5.90
2023-05-21T15:27:04.592Z,6.20
2023-05-21T15:29:31.863Z,5.50
2023-05-21T15:31:59.799Z,5.57
2023-05-21T15:34:26.932Z,5.88
2023-05-21T15:36:54.071Z,6.40
2023-05-21T15:39:21.191Z,5.05
2023-05-21T15:41:48.243Z,5.78
2023-05-21T15:44:15.496Z,5.40
2023-05-21T15:46:42.725Z,4.82
2023-05-21T15:49:09.853Z,5.57
2023-05-21T15:51:36.951Z,5.97
2023-05-21T15:54:04.151Z,5.28
2023-05-21T15:56:31.393Z,6.15
2023-05-21T15:59:01.390Z,5.10
2023-05-21T16:01:29.096Z,5.32
2023-05-21T16:03:56.757Z,5.35
2023-05-21T16:06:23.872Z,5.13
2023-05-21T16:08:51.069Z,5.68
2023-05-21T16:11:18.221Z,5.82
2023-05-21T16:13:45.444Z,5.35
2023-05-21T16:16:12.550Z,5.38
2023-05-21T16:18:39.663Z,4.93
2023-05-21T16:21:07.226Z,5.20
2023-05-21T16:23:34.379Z,5.57
2023-05-21T16:26:01.495Z,5.43
2023-05-21T16:28:29.577Z,5.78
2023-05-21T16:30:56.729Z,6.30
2023-05-21T16:33:23.797Z,5.25
2023-05-21T16:35:51.477Z,4.55
2023-05-21T16:38:18.614Z,5.43
2023-05-21T16:40:47.047Z,5.38
2023-05-21T16:43:14.267Z,6.10
2023-05-21T16:45:46.420Z,4.80
2023-05-21T16:48:14.006Z,5.15
2023-05-21T16:50:41.262Z,5.05
2023-05-21T16:53:09.889Z,6.03
2023-05-21T16:55:38.235Z,5.43
2023-05-21T16:58:06.423Z,5.70
2023-05-21T17:00:33.720Z,4.97
2023-05-21T17:03:00.937Z,6.57
2023-05-21T17:05:28.100Z,5.35
2023-05-21T17:07:55.360Z,5.20
2023-05-21T17:10:23.938Z,4.80
2023-05-21T17:12:51.337Z,5.53
2023-05-21T17:15:18.446Z,5.15
2023-05-21T17:17:45.600Z,5.13
2023-05-21T17:20:13.061Z,4.68
2023-05-21T17:22:40.203Z,5.30
2023-05-21T17:25:07.610Z,4.20
2023-05-21T17:27:34.663Z,4.78
2023-05-21T17:30:01.929Z,4.60
2023-05-21T17:32:29.055Z,4.82
2023-05-21T17:34:56.160Z,5.00
2023-05-21T17:37:23.313Z,4.85
2023-05-21T17:39:50.437Z,4.65
2023-05-21T17:42:18.180Z,5.38
2023-05-21T17:44:45.238Z,5.25
2023-05-21T17:47:12.434Z,5.30
2023-05-21T17:49:39.680Z,5.63
2023-05-21T17:52:07.226Z,5.30
2023-05-21T17:54:34.958Z,5.50
2023-05-21T17:57:03.388Z,5.95
2023-05-21T17:59:30.498Z,5.85
2023-05-21T18:02:01.433Z,5.90
2023-05-21T18:04:28.591Z,6.15
2023-05-21T18:06:55.894Z,6.72
2023-05-21T18:09:23.059Z,6.10
2023-05-21T18:11:50.297Z,6.22
2023-05-21T18:14:17.357Z,6.05
2023-05-21T18:16:44.552Z,6.50
2023-05-21T18:19:11.957Z,6.72
2023-05-21T18:21:39.294Z,7.00
2023-05-21T18:24:06.763Z,6.40
2023-05-21T18:26:33.474Z,6.25
2023-05-21T18:29:00.662Z,6.45
2023-05-21T18:31:27.736Z,6.10
2023-05-21T18:33:56.044Z,6.90
2023-05-21T18:36:23.830Z,7.13
2023-05-21T18:38:52.192Z,7.00
2023-05-21T18:41:19.911Z,6.85
2023-05-21T18:43:47.083Z,6.22
2023-05-21T18:46:14.251Z,6.93
2023-05-21T18:48:41.626Z,6.22
2023-05-21T18:51:08.754Z,6.65
2023-05-21T18:53:35.942Z,6.68
2023-05-21T18:56:04.663Z,7.05
2023-05-21T18:58:33.066Z,7.55
2023-05-21T19:01:00.498Z,6.68
2023-05-21T19:03:27.969Z,6.90
2023-05-21T19:05:55.604Z,6.97
2023-05-21T19:08:22.935Z,6.95
2023-05-21T19:10:50.380Z,6.97
2023-05-21T19:13:17.449Z,7.10
2023-05-21T19:15:46.919Z,7.53
2023-05-21T19:18:14.346Z,7.03
2023-05-21T19:20:41.472Z,7.60
2023-05-21T19:23:08.610Z,7.63
2023-05-21T19:25:36.064Z,7.70
2023-05-21T19:28:03.357Z,7.13
2023-05-21T19:30:30.484Z,7.10
2023-05-21T19:32:57.753Z,7.97
2023-05-21T19:35:24.891Z,7.82
2023-05-21T19:37:54.477Z,8.15
2023-05-21T19:40:23.088Z,7.28
2023-05-21T19:42:50.270Z,7.05
2023-05-21T19:45:17.343Z,7.20
2023-05-21T19:47:44.527Z,8.07
2023-05-21T19:50:11.862Z,8.15
2023-05-21T19:52:39.361Z,7.18
2023-05-21T19:55:08.557Z,7.68
2023-05-21T19:57:35.688Z,8.50
2023-05-21T20:00:04.262Z,8.23
2023-05-21T20:02:31.387Z,8.18
2023-05-21T20:04:59.031Z,8.55
2023-05-21T20:07:27.444Z,8.68
2023-05-21T20:09:54.552Z,7.68
2023-05-21T20:12:21.661Z,8.25
2023-05-21T20:14:48.776Z,8.18
2023-05-21T20:17:18.724Z,7.53
2023-05-21T20:19:49.003Z,8.02
2023-05-21T20:22:16.558Z,8.02
2023-05-21T20:24:43.952Z,7.15
2023-05-21T20:27:11.149Z,8.35
2023-05-21T20:29:38.387Z,7.97
2023-05-21T20:32:05.901Z,7.90
2023-05-21T20:34:33.177Z,7.25
2023-05-21T20:37:00.409Z,7.95
2023-05-21T20:39:28.562Z,8.23
2023-05-21T20:41:56.076Z,8.05
2023-05-21T20:44:23.334Z,8.68
2023-05-21T20:46:50.514Z,8.13
2023-05-21T20:49:17.762Z,7.97
2023-05-21T20:51:45.048Z,9.13
2023-05-21T20:54:17.931Z,7.57
2023-05-21T20:56:45.191Z,7.72
2023-05-21T20:59:12.383Z,7.82
2023-05-21T21:01:40.761Z,8.68
2023-05-21T21:04:08.639Z,8.05
2023-05-21T21:06:38.285Z,7.40
2023-05-21T21:09:05.470Z,8.18
2023-05-21T21:11:32.566Z,8.43
2023-05-21T21:13:59.684Z,8.48
2023-05-21T21:16:26.773Z,8.65
2023-05-21T21:18:53.899Z,8.38
2023-05-21T21:21:21.881Z,8.60
2023-05-21T21:23:48.984Z,7.78
2023-05-21T21:26:17.645Z,8.07
2023-05-21T21:28:46.518Z,7.85
2023-05-21T21:31:13.950Z,8.77
2023-05-21T21:33:41.051Z,8.80
2023-05-21T21:36:08.246Z,8.52
2023-05-21T21:38:35.607Z,8.57
2023-05-21T21:41:03.206Z,9.13
2023-05-21T21:43:30.314Z,8.95
2023-05-21T21:45:57.429Z,9.10
2023-05-21T21:48:24.513Z,9.48
2023-05-21T21:50:51.610Z,8.88
2023-05-21T21:53:18.767Z,9.88
2023-05-21T21:55:45.927Z,9.20
2023-05-21T21:58:27.101Z,9.88
2023-05-21T22:00:54.184Z,10.07
2023-05-21T22:03:21.921Z,9.65
2023-05-21T22:05:51.922Z,10.60
2023-05-21T22:08:19.085Z,9.85
2023-05-21T22:10:46.429Z,9.45
2023-05-21T22:13:14.147Z,10.32
2023-05-21T22:15:41.375Z,10.15
2023-05-21T22:18:09.346Z,8.90
2023-05-21T22:20:38.139Z,10.32
2023-05-21T22:23:05.498Z,9.27
2023-05-21T22:25:32.573Z,10.20
2023-05-21T22:27:59.937Z,10.50
2023-05-21T22:30:27.003Z,11.63
2023-05-21T22:32:54.192Z,11.20
2023-05-21T22:35:21.336Z,11.07
2023-05-21T22:37:48.609Z,10.70
2023-05-21T22:40:15.776Z,10.40
2023-05-21T22:42:42.887Z,11.68
2023-05-21T22:45:10.980Z,11.00
2023-05-21T22:47:39.578Z,10.35
2023-05-21T22:50:08.015Z,10.77
2023-05-21T22:52:35.125Z,11.40
2023-05-21T22:55:02.395Z,10.90
2023-05-21T22:57:29.565Z,11.00
2023-05-21T22:59:56.666Z,10.75
2023-05-21T23:02:23.830Z,11.07
2023-05-21T23:04:51.119Z,11.40
2023-05-21T23:07:18.200Z,9.98
2023-05-21T23:09:45.320Z,10.25
2023-05-21T23:12:12.664Z,10.75
2023-05-21T23:14:39.724Z,12.02
2023-05-21T23:17:07.430Z,10.10
2023-05-21T23:19:34.629Z,11.23
2023-05-21T23:22:01.848Z,10.82
2023-05-21T23:24:30.311Z,11.73
2023-05-21T23:27:01.822Z,11.45
2023-05-21T23:29:29.616Z,10.50
2023-05-21T23:31:56.804Z,10.85
2023-05-21T23:34:24.778Z,11.75
2023-05-21T23:36:52.080Z,11.23
2023-05-21T23:39:19.362Z,10.45
2023-05-21T23:41:46.533Z,10.38
2023-05-21T23:44:13.592Z,9.95
2023-05-21T23:46:40.739Z,11.45
2023-05-21T23:49:07.804Z,11.05
2023-05-21T23:51:35.006Z,11.57
2023-05-21T23:54:02.419Z,11.18
2023-05-21T23:56:30.330Z,11.35
2023-05-21T23:58:57.444Z,10.40
